Item Display Status Humidity-temperature Sensor

Elevation Above Sea Level: 3 m

 

Deployed Sensor

  • Serial Number: 20199386
  • NDBC Property Number: 41801
  • Start Date: 4/25/2018 (15:38:27 Z)
  • End Date: 3/29/2020 (22:45:00 Z)
Relative Humidity [%]     6 entries per hour
Showing data from 2/2/2019 (12:30:00 Z) to 2/1/2019 (00:00:01 Z)
Previous Next [ Day | 3-Days | 7-Days ]
First Last
Prev [ Day | 3-Days | 7-Days ] Next
First Last

Start Time:     :
End Time:     :     
Time (in GMT) :00 :50 :40 :30 :20 :10
Previous Next [ Day | 3-Days | 7-Days ]
First Last
Prev [ Day | 3-Days | 7-Days ] Next
First Last


123 => good data
MM => data is determined as missing
-- => data not received/configured
Back to Top Back to Top
2/2/2019 13:00 to 12:10 -- -- -- 75.27 74.84 73.08
2/2/2019 12:00 to 11:10 73.62 74.03 72.23 72.06 74.71 76.32
2/2/2019 11:00 to 10:10 75.31 73.93 73.04 74.17 74.98 75.02
2/2/2019 10:00 to 9:10 74.48 73.64 72.25 71.69 71.17 70.74
2/2/2019 09:00 to 8:10 71.59 72.54 71.98 73.06 72.75 71.88
2/2/2019 08:00 to 7:10 70.72 71.24 72.11 72.91 72.89 72.62
2/2/2019 07:00 to 6:10 72.13 71.94 71.55 71.17 70.80 70.16
2/2/2019 06:00 to 5:10 70.84 71.38 70.66 70.31 70.76 71.09
2/2/2019 05:00 to 4:10 71.09 70.89 70.37 70.37 69.89 70.20
2/2/2019 04:00 to 3:10 70.39 71.53 71.75 71.90 72.27 70.37
2/2/2019 03:00 to 2:10 69.54 69.27 70.00 70.57 71.59 71.28
2/2/2019 02:00 to 1:10 70.97 71.44 71.73 72.25 71.59 71.96
2/2/2019 01:00 to 0:10 71.98 71.55 71.59 71.22 71.80 71.96
2/2/2019 00:00 to 23:10 71.86 71.80 71.77 72.04 70.84 71.05
2/1/2019 23:00 to 22:10 70.97 71.17 71.28 71.32 71.01 71.40
2/1/2019 22:00 to 21:10 71.09 71.36 70.84 70.18 70.26 69.85
2/1/2019 21:00 to 20:10 69.79 70.18 70.93 70.72 70.47 70.41
2/1/2019 20:00 to 19:10 69.98 70.26 71.17 71.24 71.82 71.57
2/1/2019 19:00 to 18:10 71.34 72.00 71.05 71.28 70.89 70.84
2/1/2019 18:00 to 17:10 70.76 70.99 71.22 71.28 71.44 71.17
2/1/2019 17:00 to 16:10 71.53 71.98 71.84 72.50 72.23 73.26
2/1/2019 16:00 to 15:10 74.09 74.40 75.37 75.17 74.88 74.53
2/1/2019 15:00 to 14:10 73.95 74.26 74.11 74.53 74.61 74.17
2/1/2019 14:00 to 13:10 73.74 74.13 74.34 73.53 73.95 73.49
2/1/2019 13:00 to 12:10 73.45 73.20 73.06 73.47 72.87 72.83
2/1/2019 12:00 to 11:10 72.66 72.37 73.28 73.47 72.58 72.39
2/1/2019 11:00 to 10:10 72.81 73.30 73.49 73.22 72.95 72.48
2/1/2019 10:00 to 9:10 72.89 72.73 73.88 74.07 73.82 74.50
2/1/2019 09:00 to 8:10 74.44 75.15 74.98 74.92 74.92 74.01
2/1/2019 08:00 to 7:10 73.68 73.33 73.39 72.91 73.10 73.20
2/1/2019 07:00 to 6:10 73.57 72.97 72.46 71.90 71.61 71.88
2/1/2019 06:00 to 5:10 72.31 73.04 72.93 72.60 73.06 73.70
2/1/2019 05:00 to 4:10 72.81 72.85 72.77 72.58 73.12 73.26
2/1/2019 04:00 to 3:10 72.95 73.08 72.42 72.77 71.73 72.13
2/1/2019 03:00 to 2:10 71.59 71.38 72.52 72.48 72.56 72.33
2/1/2019 02:00 to 1:10 72.13 72.00 71.82 72.25 72.19 71.48
2/1/2019 01:00 to 0:10 71.69 73.04 73.55 73.62 73.57 73.33

 

 

 

Air Temperature [°C]     6 entries per hour
Showing data from 11/15/2018 (14:30:00 Z) to 11/14/2018 (00:00:01 Z)
Previous Next [ Day | 3-Days | 7-Days ]
First Last
Prev [ Day | 3-Days | 7-Days ] Next
First Last

Start Time:     :
End Time:     :     
Time (in GMT) :00 :50 :40 :30 :20 :10
Previous Next [ Day | 3-Days | 7-Days ]
First Last
Prev [ Day | 3-Days | 7-Days ] Next
First Last


123 => good data
MM => data is determined as missing
-- => data not received/configured
Back to Top Back to Top
11/15/2018 15:00 to 14:10 -- -- -- 27.56 27.57 27.52
11/15/2018 14:00 to 13:10 27.44 27.51 27.41 27.34 27.43 27.35
11/15/2018 13:00 to 12:10 27.40 27.44 27.37 27.54 27.48 27.52
11/15/2018 12:00 to 11:10 27.58 27.61 27.54 27.71 27.70 27.57
11/15/2018 11:00 to 10:10 27.55 27.61 27.51 27.71 27.61 27.51
11/15/2018 10:00 to 9:10 27.58 27.63 27.61 27.80 27.65 27.74
11/15/2018 09:00 to 8:10 27.84 27.75 27.72 27.81 27.75 27.72
11/15/2018 08:00 to 7:10 27.82 27.72 27.75 27.78 27.83 27.72
11/15/2018 07:00 to 6:10 27.79 27.77 27.94 27.79 27.91 27.75
11/15/2018 06:00 to 5:10 27.84 27.78 27.89 27.83 27.79 27.80
11/15/2018 05:00 to 4:10 27.79 27.73 27.76 27.79 27.84 27.84
11/15/2018 04:00 to 3:10 27.86 27.93 27.74 27.91 27.92 27.85
11/15/2018 03:00 to 2:10 27.85 28.01 28.20 28.05 28.02 28.10
11/15/2018 02:00 to 1:10 28.10 28.02 28.23 28.12 27.95 28.05
11/15/2018 01:00 to 0:10 27.87 27.94 27.99 27.87 27.78 27.80
11/15/2018 00:00 to 23:10 27.80 27.81 27.77 27.81 27.81 27.90
11/14/2018 23:00 to 22:10 27.86 27.88 27.87 27.88 27.86 27.97
11/14/2018 22:00 to 21:10 27.86 27.79 27.90 27.80 27.87 27.70
11/14/2018 21:00 to 20:10 -- -- -- -- -- --
11/14/2018 20:00 to 19:10 27.74 27.82 27.85 27.87 27.74 27.75
11/14/2018 19:00 to 18:10 27.84 27.91 28.02 27.94 27.99 28.02
11/14/2018 18:00 to 17:10 27.93 27.86 27.68 27.65 27.77 27.76
11/14/2018 17:00 to 16:10 27.80 27.80 27.68 27.75 27.64 27.57
11/14/2018 16:00 to 15:10 27.51 27.51 27.45 27.58 27.51 27.44
11/14/2018 15:00 to 14:10 27.45 27.54 27.50 27.60 27.56 27.58
11/14/2018 14:00 to 13:10 27.49 27.47 27.53 27.64 27.59 27.66
11/14/2018 13:00 to 12:10 27.47 27.69 27.59 27.59 27.66 27.60
11/14/2018 12:00 to 11:10 27.66 27.67 27.62 27.73 27.70 27.84
11/14/2018 11:00 to 10:10 27.71 27.88 27.92 27.80 27.80 27.77
11/14/2018 10:00 to 9:10 27.84 27.77 27.89 27.84 27.84 27.90
11/14/2018 09:00 to 8:10 27.81 27.79 27.87 27.80 27.91 27.99
11/14/2018 08:00 to 7:10 27.73 27.84 27.80 27.76 27.44 27.06
11/14/2018 07:00 to 6:10 27.61 27.88 27.78 27.88 27.86 27.80
11/14/2018 06:00 to 5:10 27.87 27.80 27.89 27.80 27.89 27.93
11/14/2018 05:00 to 4:10 27.95 27.92 27.79 27.83 27.86 27.74
11/14/2018 04:00 to 3:10 27.89 27.97 28.00 28.02 28.06 28.12
11/14/2018 03:00 to 2:10 28.25 28.24 28.38 28.18 28.34 28.19
11/14/2018 02:00 to 1:10 28.15 28.15 28.22 28.26 28.31 28.16
11/14/2018 01:00 to 0:10 28.23 28.27 28.43 28.24 28.24 28.27